首页
METAR-TAF:

METAR-TAF

机场 :

庞卡城, 奧克拉荷馬州, 美国

纬度: 36-43-50N, 经度: 097-05-59W, 海拔: 307米

当前天气观测

该预报发布于34分钟前的07:53 UTC
风速6节,风向
温度 23°C
湿度 78%
气压 1012 hPa
能見度: 16.1公里
天空无云

METAR: KPNC 130753Z AUTO 18006KT 10SM CLR 23/19 A2989 RMK AO2 SLP108 T02330189

时间: 03:27 (08:27 UTC)

预报

该预报发布于3小时和7分钟前的05:20 UTC
预报有效从13日的 06点(UTC)到 14日的 06点(UTC)
风速11节,风向
能見度: 10公里
天空无云
从 13日的 1500点(UTC)
风速12节,风向,有时为18节阵风
能見度: 10公里
散云层高于15000英尺

TAF: KPNC 130520Z 1306/1406 17011KT P6SM SKC FM131500 19012G18KT P6SM SCT150

超过4000个机场的气象观测和天气预报(METAR&TAF报告)。

可查询的气象台以黄色和红色小点在地图上表示。

将鼠标移到小点上方,可查看气象台名称。

然后点击查看天气观测和预报。

如需切换地图:点击带黑十字的绿色按钮放大地图;点击带横线的绿色按钮缩小地图;或者点击绿色箭头查看邻近地区的地图。


METAR-TAF: